sensor_id;sensor_type;location;lat;lon;timestamp;P1;durP1;ratioP1;P2;durP2;ratioP2
9166;SDS011;4618;48.818;9.088;2023-01-08T00:00:56;6.30;;;5.40;;
9166;SDS011;4618;48.818;9.088;2023-01-08T00:03:22;5.97;;;5.37;;
9166;SDS011;4618;48.818;9.088;2023-01-08T00:05:47;6.13;;;5.50;;
9166;SDS011;4618;48.818;9.088;2023-01-08T00:08:13;5.53;;;5.03;;
9166;SDS011;4618;48.818;9.088;2023-01-08T00:10:39;6.10;;;5.50;;
9166;SDS011;4618;48.818;9.088;2023-01-08T00:13:05;7.13;;;5.10;;
9166;SDS011;4618;48.818;9.088;2023-01-08T00:15:31;5.30;;;4.73;;
9166;SDS011;4618;48.818;9.088;2023-01-08T00:17:58;5.57;;;5.07;;
9166;SDS011;4618;48.818;9.088;2023-01-08T00:20:24;6.03;;;5.23;;
9166;SDS011;4618;48.818;9.088;2023-01-08T00:22:50;6.10;;;5.50;;
9166;SDS011;4618;48.818;9.088;2023-01-08T00:25:16;6.30;;;5.60;;
9166;SDS011;4618;48.818;9.088;2023-01-08T00:27:42;6.70;;;5.87;;
9166;SDS011;4618;48.818;9.088;2023-01-08T00:30:08;7.10;;;6.47;;
9166;SDS011;4618;48.818;9.088;2023-01-08T00:32:35;6.53;;;5.93;;
9166;SDS011;4618;48.818;9.088;2023-01-08T00:35:00;6.30;;;5.70;;
9166;SDS011;4618;48.818;9.088;2023-01-08T00:37:26;7.57;;;5.90;;
9166;SDS011;4618;48.818;9.088;2023-01-08T00:39:52;6.27;;;5.60;;
9166;SDS011;4618;48.818;9.088;2023-01-08T00:42:18;6.07;;;5.30;;
9166;SDS011;4618;48.818;9.088;2023-01-08T00:44:44;5.57;;;5.07;;
9166;SDS011;4618;48.818;9.088;2023-01-08T00:47:09;5.60;;;5.00;;
9166;SDS011;4618;48.818;9.088;2023-01-08T00:49:35;5.33;;;4.80;;
9166;SDS011;4618;48.818;9.088;2023-01-08T00:52:01;5.47;;;4.87;;
9166;SDS011;4618;48.818;9.088;2023-01-08T00:54:26;5.47;;;4.53;;
9166;SDS011;4618;48.818;9.088;2023-01-08T00:56:53;5.37;;;4.87;;
9166;SDS011;4618;48.818;9.088;2023-01-08T00:59:19;5.97;;;4.83;;
9166;SDS011;4618;48.818;9.088;2023-01-08T01:01:45;5.87;;;5.23;;
9166;SDS011;4618;48.818;9.088;2023-01-08T01:04:11;6.83;;;5.40;;
9166;SDS011;4618;48.818;9.088;2023-01-08T01:06:38;6.30;;;5.17;;
9166;SDS011;4618;48.818;9.088;2023-01-08T01:09:05;5.90;;;5.30;;
9166;SDS011;4618;48.818;9.088;2023-01-08T01:11:31;5.93;;;5.33;;
9166;SDS011;4618;48.818;9.088;2023-01-08T01:13:56;6.50;;;5.90;;
9166;SDS011;4618;48.818;9.088;2023-01-08T01:16:22;5.60;;;5.10;;
9166;SDS011;4618;48.818;9.088;2023-01-08T01:18:48;6.13;;;5.53;;
9166;SDS011;4618;48.818;9.088;2023-01-08T01:21:21;6.17;;;5.40;;
9166;SDS011;4618;48.818;9.088;2023-01-08T01:23:55;5.30;;;4.70;;
9166;SDS011;4618;48.818;9.088;2023-01-08T01:26:22;5.43;;;4.93;;
9166;SDS011;4618;48.818;9.088;2023-01-08T01:28:49;6.23;;;5.47;;
9166;SDS011;4618;48.818;9.088;2023-01-08T01:31:17;6.10;;;5.50;;
9166;SDS011;4618;48.818;9.088;2023-01-08T01:33:43;5.53;;;5.03;;
9166;SDS011;4618;48.818;9.088;2023-01-08T01:36:13;5.17;;;4.67;;
9166;SDS011;4618;48.818;9.088;2023-01-08T01:38:46;5.70;;;5.07;;
9166;SDS011;4618;48.818;9.088;2023-01-08T01:41:27;5.70;;;4.90;;
9166;SDS011;4618;48.818;9.088;2023-01-08T01:43:53;5.40;;;4.90;;
9166;SDS011;4618;48.818;9.088;2023-01-08T01:46:22;7.93;;;5.17;;
9166;SDS011;4618;48.818;9.088;2023-01-08T01:48:59;6.23;;;5.27;;
9166;SDS011;4618;48.818;9.088;2023-01-08T01:51:30;6.23;;;5.17;;
9166;SDS011;4618;48.818;9.088;2023-01-08T01:53:58;5.13;;;4.67;;
9166;SDS011;4618;48.818;9.088;2023-01-08T01:56:26;6.57;;;4.70;;
9166;SDS011;4618;48.818;9.088;2023-01-08T01:58:53;5.40;;;4.90;;
9166;SDS011;4618;48.818;9.088;2023-01-08T02:01:19;5.23;;;4.73;;
9166;SDS011;4618;48.818;9.088;2023-01-08T02:03:45;4.60;;;4.20;;
9166;SDS011;4618;48.818;9.088;2023-01-08T02:06:15;4.33;;;3.93;;
9166;SDS011;4618;48.818;9.088;2023-01-08T02:11:31;4.70;;;4.20;;
9166;SDS011;4618;48.818;9.088;2023-01-08T02:14:21;4.80;;;4.40;;
9166;SDS011;4618;48.818;9.088;2023-01-08T02:16:57;5.07;;;4.53;;
9166;SDS011;4618;48.818;9.088;2023-01-08T02:19:35;4.80;;;3.90;;
9166;SDS011;4618;48.818;9.088;2023-01-08T02:22:10;5.57;;;4.30;;
9166;SDS011;4618;48.818;9.088;2023-01-08T02:24:53;3.87;;;3.50;;
9166;SDS011;4618;48.818;9.088;2023-01-08T02:29:59;4.23;;;3.57;;
9166;SDS011;4618;48.818;9.088;2023-01-08T02:32:32;4.97;;;4.20;;
9166;SDS011;4618;48.818;9.088;2023-01-08T02:35:00;4.70;;;4.30;;
9166;SDS011;4618;48.818;9.088;2023-01-08T02:37:27;5.03;;;4.20;;
9166;SDS011;4618;48.818;9.088;2023-01-08T02:39:55;5.17;;;4.67;;
9166;SDS011;4618;48.818;9.088;2023-01-08T02:45:38;4.67;;;4.27;;
9166;SDS011;4618;48.818;9.088;2023-01-08T02:50:42;4.93;;;4.53;;
9166;SDS011;4618;48.818;9.088;2023-01-08T02:56:10;5.03;;;4.50;;
9166;SDS011;4618;48.818;9.088;2023-01-08T02:58:39;5.57;;;4.67;;
9166;SDS011;4618;48.818;9.088;2023-01-08T03:01:06;4.60;;;4.20;;
9166;SDS011;4618;48.818;9.088;2023-01-08T03:03:35;4.43;;;4.03;;
9166;SDS011;4618;48.818;9.088;2023-01-08T03:06:21;4.63;;;4.23;;
9166;SDS011;4618;48.818;9.088;2023-01-08T03:08:48;5.50;;;5.00;;
9166;SDS011;4618;48.818;9.088;2023-01-08T03:11:17;5.30;;;4.80;;
9166;SDS011;4618;48.818;9.088;2023-01-08T03:16:17;6.83;;;4.60;;
9166;SDS011;4618;48.818;9.088;2023-01-08T03:18:54;4.40;;;4.03;;
9166;SDS011;4618;48.818;9.088;2023-01-08T03:21:26;4.47;;;4.07;;
9166;SDS011;4618;48.818;9.088;2023-01-08T03:23:52;5.07;;;3.93;;
9166;SDS011;4618;48.818;9.088;2023-01-08T03:26:19;4.60;;;3.73;;
9166;SDS011;4618;48.818;9.088;2023-01-08T03:28:50;3.97;;;3.60;;
9166;SDS011;4618;48.818;9.088;2023-01-08T03:31:18;4.40;;;3.93;;
9166;SDS011;4618;48.818;9.088;2023-01-08T03:33:46;3.50;;;3.20;;
9166;SDS011;4618;48.818;9.088;2023-01-08T03:36:15;3.50;;;3.17;;
9166;SDS011;4618;48.818;9.088;2023-01-08T03:38:52;5.17;;;3.10;;
9166;SDS011;4618;48.818;9.088;2023-01-08T03:41:24;3.70;;;3.40;;
9166;SDS011;4618;48.818;9.088;2023-01-08T03:43:52;4.13;;;3.40;;
9166;SDS011;4618;48.818;9.088;2023-01-08T03:46:19;4.47;;;3.77;;
9166;SDS011;4618;48.818;9.088;2023-01-08T03:48:48;4.37;;;3.97;;
9166;SDS011;4618;48.818;9.088;2023-01-08T03:51:14;4.17;;;3.70;;
9166;SDS011;4618;48.818;9.088;2023-01-08T03:53:40;4.30;;;3.90;;
9166;SDS011;4618;48.818;9.088;2023-01-08T03:56:05;4.13;;;3.47;;
9166;SDS011;4618;48.818;9.088;2023-01-08T03:58:31;5.30;;;4.20;;
9166;SDS011;4618;48.818;9.088;2023-01-08T04:00:57;3.83;;;3.53;;
9166;SDS011;4618;48.818;9.088;2023-01-08T04:03:22;3.47;;;3.17;;
9166;SDS011;4618;48.818;9.088;2023-01-08T04:05:48;3.60;;;3.30;;
9166;SDS011;4618;48.818;9.088;2023-01-08T04:08:14;3.60;;;3.13;;
9166;SDS011;4618;48.818;9.088;2023-01-08T04:10:40;4.57;;;3.40;;
9166;SDS011;4618;48.818;9.088;2023-01-08T04:13:05;3.77;;;3.27;;
9166;SDS011;4618;48.818;9.088;2023-01-08T04:15:31;4.23;;;3.00;;
9166;SDS011;4618;48.818;9.088;2023-01-08T04:17:57;4.50;;;3.03;;
9166;SDS011;4618;48.818;9.088;2023-01-08T04:20:23;3.00;;;2.77;;
9166;SDS011;4618;48.818;9.088;2023-01-08T04:22:48;3.57;;;3.10;;
9166;SDS011;4618;48.818;9.088;2023-01-08T04:25:14;3.93;;;2.77;;
9166;SDS011;4618;48.818;9.088;2023-01-08T04:27:40;3.33;;;3.03;;
9166;SDS011;4618;48.818;9.088;2023-01-08T04:30:05;3.00;;;2.80;;
9166;SDS011;4618;48.818;9.088;2023-01-08T04:32:31;3.77;;;3.00;;
9166;SDS011;4618;48.818;9.088;2023-01-08T04:34:57;2.93;;;2.63;;
9166;SDS011;4618;48.818;9.088;2023-01-08T04:37:23;3.00;;;2.70;;
9166;SDS011;4618;48.818;9.088;2023-01-08T04:39:48;2.97;;;2.77;;
9166;SDS011;4618;48.818;9.088;2023-01-08T04:42:14;2.73;;;2.53;;
9166;SDS011;4618;48.818;9.088;2023-01-08T04:44:39;3.77;;;2.63;;
9166;SDS011;4618;48.818;9.088;2023-01-08T04:47:05;2.83;;;2.57;;
9166;SDS011;4618;48.818;9.088;2023-01-08T04:49:30;2.90;;;2.57;;
9166;SDS011;4618;48.818;9.088;2023-01-08T04:51:56;2.37;;;2.17;;
9166;SDS011;4618;48.818;9.088;2023-01-08T04:54:21;2.90;;;2.60;;
9166;SDS011;4618;48.818;9.088;2023-01-08T04:56:49;2.80;;;2.50;;
9166;SDS011;4618;48.818;9.088;2023-01-08T04:59:15;2.63;;;1.90;;
9166;SDS011;4618;48.818;9.088;2023-01-08T05:01:41;2.57;;;2.37;;
9166;SDS011;4618;48.818;9.088;2023-01-08T05:04:06;2.40;;;2.10;;
9166;SDS011;4618;48.818;9.088;2023-01-08T05:06:34;3.43;;;2.43;;
9166;SDS011;4618;48.818;9.088;2023-01-08T05:09:00;2.70;;;2.50;;
9166;SDS011;4618;48.818;9.088;2023-01-08T05:11:25;2.43;;;2.23;;
9166;SDS011;4618;48.818;9.088;2023-01-08T05:13:51;3.13;;;2.40;;
9166;SDS011;4618;48.818;9.088;2023-01-08T05:16:17;2.40;;;2.20;;
9166;SDS011;4618;48.818;9.088;2023-01-08T05:18:43;2.50;;;2.30;;
9166;SDS011;4618;48.818;9.088;2023-01-08T05:21:09;2.00;;;1.80;;
9166;SDS011;4618;48.818;9.088;2023-01-08T05:23:35;2.43;;;2.20;;
9166;SDS011;4618;48.818;9.088;2023-01-08T05:26:01;3.60;;;1.90;;
9166;SDS011;4618;48.818;9.088;2023-01-08T05:28:28;1.70;;;1.60;;
9166;SDS011;4618;48.818;9.088;2023-01-08T05:30:54;1.80;;;1.70;;
9166;SDS011;4618;48.818;9.088;2023-01-08T05:33:20;1.80;;;1.70;;
9166;SDS011;4618;48.818;9.088;2023-01-08T05:35:46;1.97;;;1.73;;
9166;SDS011;4618;48.818;9.088;2023-01-08T05:38:12;1.40;;;1.30;;
9166;SDS011;4618;48.818;9.088;2023-01-08T05:40:37;1.50;;;1.40;;
9166;SDS011;4618;48.818;9.088;2023-01-08T05:43:03;1.40;;;1.30;;
9166;SDS011;4618;48.818;9.088;2023-01-08T05:45:29;1.37;;;1.23;;
9166;SDS011;4618;48.818;9.088;2023-01-08T05:47:55;1.50;;;1.20;;
9166;SDS011;4618;48.818;9.088;2023-01-08T05:50:21;2.70;;;1.40;;
9166;SDS011;4618;48.818;9.088;2023-01-08T05:52:47;2.47;;;1.50;;
9166;SDS011;4618;48.818;9.088;2023-01-08T05:55:12;1.40;;;1.30;;
9166;SDS011;4618;48.818;9.088;2023-01-08T05:57:38;1.40;;;1.20;;
9166;SDS011;4618;48.818;9.088;2023-01-08T06:00:04;1.73;;;1.30;;
9166;SDS011;4618;48.818;9.088;2023-01-08T06:02:32;1.20;;;1.10;;
9166;SDS011;4618;48.818;9.088;2023-01-08T06:04:57;1.10;;;1.00;;
9166;SDS011;4618;48.818;9.088;2023-01-08T06:07:23;1.00;;;0.80;;
9166;SDS011;4618;48.818;9.088;2023-01-08T06:09:49;1.13;;;0.90;;
9166;SDS011;4618;48.818;9.088;2023-01-08T06:12:14;1.00;;;0.90;;
9166;SDS011;4618;48.818;9.088;2023-01-08T06:14:40;2.03;;;1.10;;
9166;SDS011;4618;48.818;9.088;2023-01-08T06:17:06;1.33;;;0.80;;
9166;SDS011;4618;48.818;9.088;2023-01-08T06:19:31;0.70;;;0.70;;
9166;SDS011;4618;48.818;9.088;2023-01-08T06:21:57;0.90;;;0.80;;
9166;SDS011;4618;48.818;9.088;2023-01-08T06:24:23;0.90;;;0.90;;
9166;SDS011;4618;48.818;9.088;2023-01-08T06:26:48;1.23;;;1.03;;
9166;SDS011;4618;48.818;9.088;2023-01-08T06:29:14;1.23;;;0.60;;
9166;SDS011;4618;48.818;9.088;2023-01-08T06:31:39;0.60;;;0.60;;
9166;SDS011;4618;48.818;9.088;2023-01-08T06:34:05;0.80;;;0.67;;
9166;SDS011;4618;48.818;9.088;2023-01-08T06:36:30;1.23;;;0.60;;
9166;SDS011;4618;48.818;9.088;2023-01-08T06:38:56;0.97;;;0.43;;
9166;SDS011;4618;48.818;9.088;2023-01-08T06:41:22;0.97;;;0.50;;
9166;SDS011;4618;48.818;9.088;2023-01-08T06:43:47;1.23;;;0.70;;
9166;SDS011;4618;48.818;9.088;2023-01-08T06:46:13;0.57;;;0.50;;
9166;SDS011;4618;48.818;9.088;2023-01-08T06:48:38;0.50;;;0.50;;
9166;SDS011;4618;48.818;9.088;2023-01-08T06:51:04;0.70;;;0.60;;
9166;SDS011;4618;48.818;9.088;2023-01-08T06:53:30;1.13;;;0.50;;
9166;SDS011;4618;48.818;9.088;2023-01-08T06:55:55;0.53;;;0.53;;
9166;SDS011;4618;48.818;9.088;2023-01-08T06:58:23;1.10;;;0.60;;
9166;SDS011;4618;48.818;9.088;2023-01-08T07:00:49;0.80;;;0.70;;
9166;SDS011;4618;48.818;9.088;2023-01-08T07:03:15;1.03;;;0.60;;
9166;SDS011;4618;48.818;9.088;2023-01-08T07:05:40;0.90;;;0.70;;
9166;SDS011;4618;48.818;9.088;2023-01-08T07:08:09;0.60;;;0.60;;
9166;SDS011;4618;48.818;9.088;2023-01-08T07:10:35;0.80;;;0.77;;
9166;SDS011;4618;48.818;9.088;2023-01-08T07:13:01;0.60;;;0.60;;
9166;SDS011;4618;48.818;9.088;2023-01-08T07:15:27;0.50;;;0.50;;
9166;SDS011;4618;48.818;9.088;2023-01-08T07:17:52;1.20;;;0.40;;
9166;SDS011;4618;48.818;9.088;2023-01-08T07:20:18;0.50;;;0.50;;
9166;SDS011;4618;48.818;9.088;2023-01-08T07:22:43;0.40;;;0.40;;
9166;SDS011;4618;48.818;9.088;2023-01-08T07:25:09;0.60;;;0.60;;
9166;SDS011;4618;48.818;9.088;2023-01-08T07:27:34;0.43;;;0.40;;
9166;SDS011;4618;48.818;9.088;2023-01-08T07:30:00;0.40;;;0.40;;
9166;SDS011;4618;48.818;9.088;2023-01-08T07:32:25;0.30;;;0.30;;
9166;SDS011;4618;48.818;9.088;2023-01-08T07:34:51;0.50;;;0.50;;
9166;SDS011;4618;48.818;9.088;2023-01-08T07:37:18;0.40;;;0.40;;
9166;SDS011;4618;48.818;9.088;2023-01-08T07:39:44;0.73;;;0.50;;
9166;SDS011;4618;48.818;9.088;2023-01-08T07:42:09;0.50;;;0.50;;
9166;SDS011;4618;48.818;9.088;2023-01-08T07:44:35;0.40;;;0.40;;
9166;SDS011;4618;48.818;9.088;2023-01-08T07:47:01;0.50;;;0.50;;
9166;SDS011;4618;48.818;9.088;2023-01-08T07:49:26;0.80;;;0.50;;
9166;SDS011;4618;48.818;9.088;2023-01-08T07:51:52;0.40;;;0.40;;
9166;SDS011;4618;48.818;9.088;2023-01-08T07:54:17;0.73;;;0.63;;
9166;SDS011;4618;48.818;9.088;2023-01-08T07:56:43;0.50;;;0.50;;
9166;SDS011;4618;48.818;9.088;2023-01-08T07:59:09;0.43;;;0.43;;
9166;SDS011;4618;48.818;9.088;2023-01-08T08:01:34;0.83;;;0.50;;
9166;SDS011;4618;48.818;9.088;2023-01-08T08:04:00;1.37;;;0.60;;
9166;SDS011;4618;48.818;9.088;2023-01-08T08:06:25;0.40;;;0.40;;
9166;SDS011;4618;48.818;9.088;2023-01-08T08:08:51;0.50;;;0.50;;
9166;SDS011;4618;48.818;9.088;2023-01-08T08:11:16;0.60;;;0.60;;
9166;SDS011;4618;48.818;9.088;2023-01-08T08:13:42;0.50;;;0.50;;
9166;SDS011;4618;48.818;9.088;2023-01-08T08:16:09;0.60;;;0.60;;
9166;SDS011;4618;48.818;9.088;2023-01-08T08:18:35;0.50;;;0.50;;
9166;SDS011;4618;48.818;9.088;2023-01-08T08:21:01;0.53;;;0.50;;
9166;SDS011;4618;48.818;9.088;2023-01-08T08:23:28;0.60;;;0.60;;
9166;SDS011;4618;48.818;9.088;2023-01-08T08:25:53;1.27;;;0.57;;
9166;SDS011;4618;48.818;9.088;2023-01-08T08:28:19;1.43;;;0.60;;
9166;SDS011;4618;48.818;9.088;2023-01-08T08:30:45;0.70;;;0.70;;
9166;SDS011;4618;48.818;9.088;2023-01-08T08:33:11;1.33;;;0.70;;
9166;SDS011;4618;48.818;9.088;2023-01-08T08:35:36;1.53;;;0.57;;
9166;SDS011;4618;48.818;9.088;2023-01-08T08:38:03;0.97;;;0.70;;
9166;SDS011;4618;48.818;9.088;2023-01-08T08:40:28;0.70;;;0.50;;
9166;SDS011;4618;48.818;9.088;2023-01-08T08:42:58;0.57;;;0.57;;
9166;SDS011;4618;48.818;9.088;2023-01-08T08:45:25;0.50;;;0.50;;
9166;SDS011;4618;48.818;9.088;2023-01-08T08:47:51;1.17;;;0.50;;
9166;SDS011;4618;48.818;9.088;2023-01-08T08:50:17;0.70;;;0.67;;
9166;SDS011;4618;48.818;9.088;2023-01-08T08:52:43;1.70;;;0.80;;
9166;SDS011;4618;48.818;9.088;2023-01-08T08:55:09;0.60;;;0.60;;
9166;SDS011;4618;48.818;9.088;2023-01-08T08:57:40;0.73;;;0.60;;
9166;SDS011;4618;48.818;9.088;2023-01-08T09:00:06;0.60;;;0.60;;
9166;SDS011;4618;48.818;9.088;2023-01-08T09:02:32;1.20;;;0.50;;
9166;SDS011;4618;48.818;9.088;2023-01-08T09:04:57;0.70;;;0.70;;
9166;SDS011;4618;48.818;9.088;2023-01-08T09:07:23;0.80;;;0.40;;
9166;SDS011;4618;48.818;9.088;2023-01-08T09:09:49;0.43;;;0.43;;
9166;SDS011;4618;48.818;9.088;2023-01-08T09:12:14;1.37;;;0.50;;
9166;SDS011;4618;48.818;9.088;2023-01-08T09:14:40;1.00;;;0.40;;
9166;SDS011;4618;48.818;9.088;2023-01-08T09:17:05;0.50;;;0.50;;
9166;SDS011;4618;48.818;9.088;2023-01-08T09:19:31;0.50;;;0.33;;
9166;SDS011;4618;48.818;9.088;2023-01-08T09:21:57;0.90;;;0.57;;
9166;SDS011;4618;48.818;9.088;2023-01-08T09:24:23;0.50;;;0.40;;
9166;SDS011;4618;48.818;9.088;2023-01-08T09:26:48;1.00;;;0.80;;
9166;SDS011;4618;48.818;9.088;2023-01-08T09:29:17;1.17;;;0.50;;
9166;SDS011;4618;48.818;9.088;2023-01-08T09:31:42;0.57;;;0.40;;
9166;SDS011;4618;48.818;9.088;2023-01-08T09:34:08;0.60;;;0.60;;
9166;SDS011;4618;48.818;9.088;2023-01-08T09:36:33;0.40;;;0.40;;
9166;SDS011;4618;48.818;9.088;2023-01-08T09:38:59;0.80;;;0.50;;
9166;SDS011;4618;48.818;9.088;2023-01-08T09:41:26;1.07;;;0.40;;
9166;SDS011;4618;48.818;9.088;2023-01-08T09:43:55;1.07;;;0.60;;
9166;SDS011;4618;48.818;9.088;2023-01-08T09:46:25;1.17;;;0.50;;
9166;SDS011;4618;48.818;9.088;2023-01-08T09:48:51;0.60;;;0.60;;
9166;SDS011;4618;48.818;9.088;2023-01-08T09:51:38;0.60;;;0.60;;
9166;SDS011;4618;48.818;9.088;2023-01-08T09:54:04;0.40;;;0.40;;
9166;SDS011;4618;48.818;9.088;2023-01-08T09:56:34;1.27;;;0.57;;
9166;SDS011;4618;48.818;9.088;2023-01-08T09:59:02;1.13;;;0.60;;
9166;SDS011;4618;48.818;9.088;2023-01-08T10:01:29;1.07;;;0.60;;
9166;SDS011;4618;48.818;9.088;2023-01-08T10:06:37;1.00;;;0.50;;
9166;SDS011;4618;48.818;9.088;2023-01-08T10:09:04;0.57;;;0.40;;
9166;SDS011;4618;48.818;9.088;2023-01-08T10:11:41;0.30;;;0.30;;
9166;SDS011;4618;48.818;9.088;2023-01-08T10:14:15;0.50;;;0.50;;
9166;SDS011;4618;48.818;9.088;2023-01-08T10:16:45;0.83;;;0.50;;
9166;SDS011;4618;48.818;9.088;2023-01-08T10:19:14;0.70;;;0.50;;
9166;SDS011;4618;48.818;9.088;2023-01-08T10:21:40;1.00;;;0.63;;
9166;SDS011;4618;48.818;9.088;2023-01-08T10:24:06;0.60;;;0.40;;
9166;SDS011;4618;48.818;9.088;2023-01-08T10:26:32;0.40;;;0.40;;
9166;SDS011;4618;48.818;9.088;2023-01-08T10:29:12;0.57;;;0.40;;
9166;SDS011;4618;48.818;9.088;2023-01-08T10:31:47;0.63;;;0.50;;
9166;SDS011;4618;48.818;9.088;2023-01-08T10:36:57;0.60;;;0.60;;
9166;SDS011;4618;48.818;9.088;2023-01-08T10:39:24;0.60;;;0.60;;
9166;SDS011;4618;48.818;9.088;2023-01-08T10:41:52;0.50;;;0.50;;
9166;SDS011;4618;48.818;9.088;2023-01-08T10:44:22;0.57;;;0.57;;
9166;SDS011;4618;48.818;9.088;2023-01-08T10:46:49;1.33;;;0.50;;
9166;SDS011;4618;48.818;9.088;2023-01-08T10:49:25;0.57;;;0.57;;
9166;SDS011;4618;48.818;9.088;2023-01-08T10:51:57;0.60;;;0.60;;
9166;SDS011;4618;48.818;9.088;2023-01-08T10:54:26;0.40;;;0.40;;
9166;SDS011;4618;48.818;9.088;2023-01-08T10:56:57;0.50;;;0.50;;
9166;SDS011;4618;48.818;9.088;2023-01-08T10:59:23;0.70;;;0.50;;
9166;SDS011;4618;48.818;9.088;2023-01-08T11:01:50;1.20;;;0.60;;
9166;SDS011;4618;48.818;9.088;2023-01-08T11:04:26;0.60;;;0.60;;
9166;SDS011;4618;48.818;9.088;2023-01-08T11:06:56;0.80;;;0.60;;
9166;SDS011;4618;48.818;9.088;2023-01-08T11:09:29;0.60;;;0.60;;
9166;SDS011;4618;48.818;9.088;2023-01-08T11:11:56;1.77;;;0.77;;
9166;SDS011;4618;48.818;9.088;2023-01-08T11:14:27;0.90;;;0.80;;
9166;SDS011;4618;48.818;9.088;2023-01-08T11:16:53;0.37;;;0.37;;
9166;SDS011;4618;48.818;9.088;2023-01-08T11:19:23;0.73;;;0.67;;
9166;SDS011;4618;48.818;9.088;2023-01-08T11:24:22;1.07;;;0.60;;
9166;SDS011;4618;48.818;9.088;2023-01-08T11:27:17;0.67;;;0.40;;
9166;SDS011;4618;48.818;9.088;2023-01-08T11:30:01;0.67;;;0.43;;
9166;SDS011;4618;48.818;9.088;2023-01-08T11:37:37;0.90;;;0.60;;
9166;SDS011;4618;48.818;9.088;2023-01-08T11:40:14;0.30;;;0.30;;
9166;SDS011;4618;48.818;9.088;2023-01-08T11:42:45;0.40;;;0.40;;
9166;SDS011;4618;48.818;9.088;2023-01-08T12:13:00;0.30;;;0.30;;
9166;SDS011;4618;48.818;9.088;2023-01-08T12:16:03;0.80;;;0.40;;
9166;SDS011;4618;48.818;9.088;2023-01-08T12:18:49;0.37;;;0.37;;
9166;SDS011;4618;48.818;9.088;2023-01-08T12:29:33;0.60;;;0.60;;
9166;SDS011;4618;48.818;9.088;2023-01-08T12:32:17;1.60;;;1.00;;
9166;SDS011;4618;48.818;9.088;2023-01-08T12:37:35;0.40;;;0.40;;
9166;SDS011;4618;48.818;9.088;2023-01-08T12:40:16;0.27;;;0.27;;
9166;SDS011;4618;48.818;9.088;2023-01-08T12:42:56;0.30;;;0.30;;
9166;SDS011;4618;48.818;9.088;2023-01-08T12:45:29;0.40;;;0.40;;
9166;SDS011;4618;48.818;9.088;2023-01-08T12:48:13;0.50;;;0.50;;
9166;SDS011;4618;48.818;9.088;2023-01-08T12:50:50;0.83;;;0.60;;
9166;SDS011;4618;48.818;9.088;2023-01-08T13:04:20;0.60;;;0.30;;
9166;SDS011;4618;48.818;9.088;2023-01-08T13:06:57;0.77;;;0.53;;
9166;SDS011;4618;48.818;9.088;2023-01-08T13:09:26;1.17;;;0.40;;
9166;SDS011;4618;48.818;9.088;2023-01-08T13:11:54;0.40;;;0.40;;
9166;SDS011;4618;48.818;9.088;2023-01-08T13:14:21;0.40;;;0.40;;
9166;SDS011;4618;48.818;9.088;2023-01-08T13:16:59;0.30;;;0.30;;
9166;SDS011;4618;48.818;9.088;2023-01-08T13:19:27;0.30;;;0.30;;
9166;SDS011;4618;48.818;9.088;2023-01-08T13:21:57;0.23;;;0.23;;
9166;SDS011;4618;48.818;9.088;2023-01-08T13:24:34;0.33;;;0.30;;
9166;SDS011;4618;48.818;9.088;2023-01-08T13:29:44;0.50;;;0.40;;
9166;SDS011;4618;48.818;9.088;2023-01-08T13:37:39;0.33;;;0.30;;
9166;SDS011;4618;48.818;9.088;2023-01-08T13:45:53;0.40;;;0.40;;
9166;SDS011;4618;48.818;9.088;2023-01-08T13:48:26;0.40;;;0.40;;
9166;SDS011;4618;48.818;9.088;2023-01-08T13:51:03;0.33;;;0.33;;
9166;SDS011;4618;48.818;9.088;2023-01-08T13:53:29;0.40;;;0.40;;
9166;SDS011;4618;48.818;9.088;2023-01-08T13:55:59;1.30;;;0.37;;
9166;SDS011;4618;48.818;9.088;2023-01-08T13:58:34;1.03;;;0.40;;
9166;SDS011;4618;48.818;9.088;2023-01-08T14:01:04;0.37;;;0.37;;
9166;SDS011;4618;48.818;9.088;2023-01-08T14:03:32;0.53;;;0.40;;
9166;SDS011;4618;48.818;9.088;2023-01-08T14:06:04;0.60;;;0.30;;
9166;SDS011;4618;48.818;9.088;2023-01-08T14:08:59;0.90;;;0.90;;
9166;SDS011;4618;48.818;9.088;2023-01-08T14:13:53;0.47;;;0.47;;
9166;SDS011;4618;48.818;9.088;2023-01-08T14:16:19;0.40;;;0.40;;
9166;SDS011;4618;48.818;9.088;2023-01-08T14:18:45;0.40;;;0.40;;
9166;SDS011;4618;48.818;9.088;2023-01-08T14:21:12;0.40;;;0.40;;
9166;SDS011;4618;48.818;9.088;2023-01-08T14:23:44;0.40;;;0.40;;
9166;SDS011;4618;48.818;9.088;2023-01-08T14:26:16;3.30;;;2.20;;
9166;SDS011;4618;48.818;9.088;2023-01-08T14:29:12;1.80;;;0.60;;
9166;SDS011;4618;48.818;9.088;2023-01-08T14:31:46;0.50;;;0.50;;
9166;SDS011;4618;48.818;9.088;2023-01-08T14:34:14;0.30;;;0.30;;
9166;SDS011;4618;48.818;9.088;2023-01-08T14:36:40;0.40;;;0.40;;
9166;SDS011;4618;48.818;9.088;2023-01-08T14:39:10;0.40;;;0.30;;
9166;SDS011;4618;48.818;9.088;2023-01-08T14:41:37;0.20;;;0.20;;
9166;SDS011;4618;48.818;9.088;2023-01-08T14:44:24;0.23;;;0.23;;
9166;SDS011;4618;48.818;9.088;2023-01-08T14:46:50;0.40;;;0.30;;
9166;SDS011;4618;48.818;9.088;2023-01-08T14:49:19;0.90;;;0.50;;
9166;SDS011;4618;48.818;9.088;2023-01-08T14:51:56;0.60;;;0.37;;
9166;SDS011;4618;48.818;9.088;2023-01-08T14:54:25;0.40;;;0.40;;
9166;SDS011;4618;48.818;9.088;2023-01-08T14:56:58;0.30;;;0.30;;
9166;SDS011;4618;48.818;9.088;2023-01-08T14:59:26;0.30;;;0.30;;
9166;SDS011;4618;48.818;9.088;2023-01-08T15:01:58;0.30;;;0.30;;
9166;SDS011;4618;48.818;9.088;2023-01-08T15:04:26;0.30;;;0.30;;
9166;SDS011;4618;48.818;9.088;2023-01-08T15:07:03;1.17;;;0.50;;
9166;SDS011;4618;48.818;9.088;2023-01-08T15:09:55;0.30;;;0.30;;
9166;SDS011;4618;48.818;9.088;2023-01-08T15:12:24;0.40;;;0.40;;
9166;SDS011;4618;48.818;9.088;2023-01-08T15:14:51;0.30;;;0.30;;
9166;SDS011;4618;48.818;9.088;2023-01-08T15:17:19;0.30;;;0.30;;
9166;SDS011;4618;48.818;9.088;2023-01-08T15:19:50;0.33;;;0.30;;
9166;SDS011;4618;48.818;9.088;2023-01-08T15:22:19;0.60;;;0.40;;
9166;SDS011;4618;48.818;9.088;2023-01-08T15:24:53;0.50;;;0.50;;
9166;SDS011;4618;48.818;9.088;2023-01-08T15:27:24;1.07;;;0.70;;
9166;SDS011;4618;48.818;9.088;2023-01-08T15:29:51;0.53;;;0.50;;
9166;SDS011;4618;48.818;9.088;2023-01-08T15:32:28;0.40;;;0.40;;
9166;SDS011;4618;48.818;9.088;2023-01-08T15:34:56;0.50;;;0.40;;
9166;SDS011;4618;48.818;9.088;2023-01-08T15:37:22;2.10;;;0.50;;
9166;SDS011;4618;48.818;9.088;2023-01-08T15:39:47;0.60;;;0.60;;
9166;SDS011;4618;48.818;9.088;2023-01-08T15:42:29;0.80;;;0.80;;
9166;SDS011;4618;48.818;9.088;2023-01-08T15:45:15;0.60;;;0.53;;
9166;SDS011;4618;48.818;9.088;2023-01-08T15:47:43;1.20;;;1.10;;
9166;SDS011;4618;48.818;9.088;2023-01-08T15:50:08;1.30;;;1.20;;
9166;SDS011;4618;48.818;9.088;2023-01-08T15:52:35;1.60;;;1.07;;
9166;SDS011;4618;48.818;9.088;2023-01-08T15:55:02;2.13;;;1.90;;
9166;SDS011;4618;48.818;9.088;2023-01-08T15:57:28;1.47;;;1.37;;
9166;SDS011;4618;48.818;9.088;2023-01-08T15:59:56;1.57;;;1.47;;
9166;SDS011;4618;48.818;9.088;2023-01-08T16:02:23;1.53;;;1.40;;
9166;SDS011;4618;48.818;9.088;2023-01-08T16:04:53;3.77;;;1.20;;
9166;SDS011;4618;48.818;9.088;2023-01-08T16:07:19;1.97;;;1.10;;
9166;SDS011;4618;48.818;9.088;2023-01-08T16:09:46;0.87;;;0.87;;
9166;SDS011;4618;48.818;9.088;2023-01-08T16:12:12;0.50;;;0.50;;
9166;SDS011;4618;48.818;9.088;2023-01-08T16:14:37;1.33;;;0.83;;
9166;SDS011;4618;48.818;9.088;2023-01-08T16:17:03;1.47;;;0.60;;
9166;SDS011;4618;48.818;9.088;2023-01-08T16:19:30;1.97;;;1.00;;
9166;SDS011;4618;48.818;9.088;2023-01-08T16:21:55;1.27;;;0.90;;
9166;SDS011;4618;48.818;9.088;2023-01-08T16:24:22;1.20;;;1.10;;
9166;SDS011;4618;48.818;9.088;2023-01-08T16:26:48;1.73;;;1.10;;
9166;SDS011;4618;48.818;9.088;2023-01-08T16:29:13;0.90;;;0.90;;
9166;SDS011;4618;48.818;9.088;2023-01-08T16:31:43;0.77;;;0.77;;
9166;SDS011;4618;48.818;9.088;2023-01-08T16:34:09;0.70;;;0.70;;
9166;SDS011;4618;48.818;9.088;2023-01-08T16:36:35;0.87;;;0.87;;
9166;SDS011;4618;48.818;9.088;2023-01-08T16:39:01;0.60;;;0.60;;
9166;SDS011;4618;48.818;9.088;2023-01-08T16:41:26;2.43;;;0.83;;
9166;SDS011;4618;48.818;9.088;2023-01-08T16:43:52;0.60;;;0.60;;
9166;SDS011;4618;48.818;9.088;2023-01-08T16:46:17;1.07;;;0.60;;
9166;SDS011;4618;48.818;9.088;2023-01-08T16:48:43;0.60;;;0.60;;
9166;SDS011;4618;48.818;9.088;2023-01-08T16:51:10;0.93;;;0.67;;
9166;SDS011;4618;48.818;9.088;2023-01-08T16:53:37;0.83;;;0.73;;
9166;SDS011;4618;48.818;9.088;2023-01-08T16:56:03;0.80;;;0.70;;
9166;SDS011;4618;48.818;9.088;2023-01-08T16:58:29;0.60;;;0.60;;